createdAt,value
2023-12-28T00:02:10.848Z,1.39
2023-12-28T00:04:37.832Z,1.34
2023-12-28T00:07:05.393Z,1.22
2023-12-28T00:09:32.207Z,1.28
2023-12-28T00:11:59.965Z,1.31
2023-12-28T00:14:26.770Z,1.56
2023-12-28T00:16:53.491Z,1.61
2023-12-28T00:19:22.217Z,1.34
2023-12-28T00:21:49.309Z,1.13
2023-12-28T00:24:17.461Z,1.12
2023-12-28T00:26:44.369Z,1.27
2023-12-28T00:29:11.149Z,1.59
2023-12-28T00:31:38.580Z,1.43
2023-12-28T00:34:05.581Z,1.14
2023-12-28T00:36:32.462Z,1.01
2023-12-28T00:38:59.325Z,1.19
2023-12-28T00:41:25.998Z,1.14
2023-12-28T00:43:52.668Z,1.11
2023-12-28T00:46:19.325Z,1.02
2023-12-28T00:48:46.200Z,1.11
2023-12-28T00:51:13.078Z,1.23
2023-12-28T00:53:39.766Z,0.92
2023-12-28T00:56:06.478Z,1.12
2023-12-28T00:58:33.129Z,1.02
2023-12-28T01:00:59.939Z,0.90
2023-12-28T01:03:26.886Z,0.92
2023-12-28T01:05:54.458Z,0.95
2023-12-28T01:08:21.332Z,0.72
2023-12-28T01:10:48.071Z,0.57
2023-12-28T01:13:14.989Z,1.01
2023-12-28T01:15:41.915Z,0.91
2023-12-28T01:18:08.938Z,0.86
2023-12-28T01:20:36.477Z,1.12
2023-12-28T01:23:04.712Z,0.84
2023-12-28T01:25:32.657Z,1.05
2023-12-28T01:27:59.708Z,1.17
2023-12-28T01:30:27.610Z,0.89
2023-12-28T01:32:55.029Z,0.93
2023-12-28T01:35:21.774Z,1.10
2023-12-28T01:37:48.434Z,0.98
2023-12-28T01:40:16.967Z,0.64
2023-12-28T01:42:43.730Z,1.01
2023-12-28T01:45:10.619Z,0.97
2023-12-28T01:47:38.739Z,0.78
2023-12-28T01:50:08.011Z,0.73
2023-12-28T01:52:35.472Z,0.84
2023-12-28T01:55:02.650Z,0.77
2023-12-28T01:57:30.855Z,0.85
2023-12-28T02:00:09.823Z,0.66
2023-12-28T02:02:44.538Z,0.49
2023-12-28T02:05:14.477Z,0.72
2023-12-28T02:07:41.323Z,0.60
2023-12-28T02:10:08.939Z,0.45
2023-12-28T02:12:35.846Z,0.52
2023-12-28T02:15:03.009Z,0.85
2023-12-28T02:17:38.615Z,0.71
2023-12-28T02:20:07.670Z,0.77
2023-12-28T02:22:35.400Z,0.65
2023-12-28T02:25:05.407Z,0.51
2023-12-28T02:27:32.651Z,0.73
2023-12-28T02:29:59.472Z,0.50
2023-12-28T02:32:37.230Z,0.31
2023-12-28T02:35:17.193Z,0.18
2023-12-28T02:37:45.714Z,0.50
2023-12-28T02:40:16.148Z,0.11
2023-12-28T02:42:43.843Z,0.06
2023-12-28T02:45:10.897Z,0.10
2023-12-28T02:47:38.017Z,0.22
2023-12-28T02:50:05.117Z,0.69
2023-12-28T02:52:31.804Z,1.34
2023-12-28T02:54:58.852Z,0.57
2023-12-28T02:57:25.521Z,0.22
2023-12-28T02:59:52.332Z,0.39
2023-12-28T03:02:19.107Z,0.21
2023-12-28T03:04:47.298Z,0.22
2023-12-28T03:07:14.033Z,0.18
2023-12-28T03:09:40.907Z,0.15
2023-12-28T03:12:07.981Z,0.21
2023-12-28T03:14:34.732Z,-0.02
2023-12-28T03:17:01.399Z,-0.19
2023-12-28T03:19:29.856Z,-0.13
2023-12-28T03:21:56.730Z,-0.04
2023-12-28T03:24:23.437Z,0.17
2023-12-28T03:26:50.181Z,0.08
2023-12-28T03:29:17.460Z,-0.04
2023-12-28T03:31:44.168Z,-0.07
2023-12-28T03:34:11.073Z,-0.06
2023-12-28T03:36:38.002Z,0.04
2023-12-28T03:39:07.675Z,0.29
2023-12-28T03:41:34.525Z,0.34
2023-12-28T03:44:01.791Z,0.08
2023-12-28T03:46:28.460Z,-0.08
2023-12-28T03:48:55.327Z,-0.06
2023-12-28T03:51:22.038Z,-0.01
2023-12-28T03:53:48.709Z,0.04
2023-12-28T03:56:28.980Z,-0.04
2023-12-28T03:58:55.810Z,0.00
2023-12-28T04:01:23.579Z,-0.03
2023-12-28T04:03:50.882Z,-0.16
2023-12-28T04:06:17.699Z,-0.12
2023-12-28T04:08:44.878Z,-0.07
2023-12-28T04:11:11.716Z,0.20
2023-12-28T04:13:38.551Z,0.12
2023-12-28T04:16:05.876Z,-0.08
2023-12-28T04:18:33.581Z,-0.11
2023-12-28T04:21:00.304Z,0.11
2023-12-28T04:23:26.964Z,-0.03
2023-12-28T04:25:53.582Z,0.06
2023-12-28T04:28:20.231Z,-0.06
2023-12-28T04:30:47.082Z,-0.01
2023-12-28T04:33:14.267Z,-0.14
2023-12-28T04:35:41.780Z,0.00
2023-12-28T04:38:10.079Z,-0.32
2023-12-28T04:40:36.762Z,-0.47
2023-12-28T04:43:04.058Z,-0.11
2023-12-28T04:45:30.738Z,-0.31
2023-12-28T04:47:58.820Z,-0.56
2023-12-28T04:50:25.792Z,-0.61
2023-12-28T04:52:52.567Z,-0.38
2023-12-28T04:55:19.272Z,-0.35
2023-12-28T04:57:45.977Z,-0.67
2023-12-28T05:00:13.150Z,-0.26
2023-12-28T05:02:39.961Z,-0.38
2023-12-28T05:05:07.120Z,-0.72
2023-12-28T05:07:33.733Z,-0.63
2023-12-28T05:10:00.501Z,-0.62
2023-12-28T05:12:28.606Z,-0.68
2023-12-28T05:14:57.540Z,-0.71
2023-12-28T05:17:24.298Z,-0.95
2023-12-28T05:19:51.051Z,-0.93
2023-12-28T05:22:17.730Z,-0.58
2023-12-28T05:24:44.387Z,-0.41
2023-12-28T05:27:11.070Z,-0.37
2023-12-28T05:29:37.834Z,-0.37
2023-12-28T05:32:05.249Z,-0.38
2023-12-28T05:34:32.046Z,-0.64
2023-12-28T05:36:58.879Z,-0.60
2023-12-28T05:39:25.692Z,-0.56
2023-12-28T05:41:52.377Z,-0.68
2023-12-28T05:44:19.619Z,-0.75
2023-12-28T05:46:46.336Z,-0.82
2023-12-28T05:49:13.113Z,-0.48
2023-12-28T05:51:43.290Z,-0.51
2023-12-28T05:54:10.268Z,-0.55
2023-12-28T05:56:37.156Z,-0.32
2023-12-28T05:59:03.874Z,-0.75
2023-12-28T06:01:30.604Z,-0.67
2023-12-28T06:03:57.416Z,-0.46
2023-12-28T06:06:24.124Z,-0.54
2023-12-28T06:08:50.780Z,-0.58
2023-12-28T06:11:17.459Z,-0.49
2023-12-28T06:13:44.140Z,-0.54
2023-12-28T06:16:10.913Z,-0.58
2023-12-28T06:18:37.786Z,-0.67
2023-12-28T06:21:07.210Z,-0.26
2023-12-28T06:23:34.015Z,-0.43
2023-12-28T06:26:08.090Z,-0.38
2023-12-28T06:28:34.894Z,-0.45
2023-12-28T06:31:02.395Z,-0.61
2023-12-28T06:33:32.378Z,-0.54
2023-12-28T06:35:59.276Z,-0.61
2023-12-28T06:38:26.595Z,-0.57
2023-12-28T06:40:53.494Z,-0.43
2023-12-28T06:43:20.427Z,-0.45
2023-12-28T06:45:47.162Z,-0.62
2023-12-28T06:48:13.920Z,-0.48
2023-12-28T06:50:40.659Z,-0.61
2023-12-28T06:53:07.458Z,-0.46
2023-12-28T06:55:34.190Z,-0.38
2023-12-28T06:58:01.342Z,-0.49
2023-12-28T07:00:28.224Z,-0.29
2023-12-28T07:02:55.049Z,-0.57
2023-12-28T07:05:21.782Z,0.12
2023-12-28T07:07:48.498Z,0.62
2023-12-28T07:10:15.300Z,0.77
2023-12-28T07:12:42.027Z,1.19
2023-12-28T07:15:11.645Z,2.45
2023-12-28T07:17:40.278Z,3.10
2023-12-28T07:20:07.709Z,3.49
2023-12-28T07:22:34.334Z,3.15
2023-12-28T07:25:01.020Z,2.32
2023-12-28T07:27:27.852Z,2.29
2023-12-28T07:29:54.718Z,1.58
2023-12-28T07:32:24.054Z,1.69
2023-12-28T07:34:50.733Z,2.36
2023-12-28T07:37:17.453Z,3.18
2023-12-28T07:42:10.964Z,3.25
2023-12-28T07:44:38.987Z,3.12
2023-12-28T07:47:08.194Z,3.99
2023-12-28T07:49:36.148Z,4.06
2023-12-28T07:52:02.916Z,3.66
2023-12-28T07:54:29.682Z,4.01
2023-12-28T07:56:56.491Z,4.15
2023-12-28T07:59:23.185Z,4.07
2023-12-28T08:01:49.985Z,4.86
2023-12-28T08:04:16.713Z,5.44
2023-12-28T08:09:10.106Z,4.92
2023-12-28T08:11:36.811Z,5.34
2023-12-28T08:14:03.498Z,4.36
2023-12-28T08:16:30.399Z,3.90
2023-12-28T08:18:57.296Z,4.00
2023-12-28T08:21:24.082Z,3.01
2023-12-28T08:23:50.799Z,2.90
2023-12-28T08:26:17.434Z,2.90
2023-12-28T08:28:44.083Z,3.50
2023-12-28T08:31:11.021Z,2.89
2023-12-28T08:33:41.263Z,2.65
2023-12-28T08:36:09.225Z,2.72
2023-12-28T08:38:36.064Z,2.95
2023-12-28T08:41:04.473Z,3.70
2023-12-28T08:43:31.235Z,2.98
2023-12-28T08:45:58.109Z,2.66
2023-12-28T08:48:25.114Z,2.78
2023-12-28T08:50:52.087Z,3.20
2023-12-28T08:53:18.772Z,3.60
2023-12-28T08:55:45.478Z,3.65
2023-12-28T08:58:12.253Z,4.25
2023-12-28T09:00:39.198Z,5.00
2023-12-28T09:03:05.972Z,4.49
2023-12-28T09:05:32.702Z,5.66
2023-12-28T09:07:59.705Z,5.36
2023-12-28T09:10:26.523Z,5.11
2023-12-28T09:12:53.290Z,5.40
2023-12-28T09:15:20.222Z,5.05
2023-12-28T09:17:47.112Z,5.59
2023-12-28T09:20:13.879Z,5.23
2023-12-28T09:22:41.243Z,6.20
2023-12-28T09:25:08.446Z,6.63
2023-12-28T09:27:35.457Z,7.05
2023-12-28T09:30:02.088Z,7.47
2023-12-28T09:32:28.876Z,7.79
2023-12-28T09:34:55.625Z,7.89
2023-12-28T09:37:22.339Z,8.69
2023-12-28T09:39:49.032Z,9.28
2023-12-28T09:42:27.604Z,7.85
2023-12-28T09:44:54.524Z,7.88
2023-12-28T09:47:21.338Z,8.37
2023-12-28T09:49:48.623Z,8.02
2023-12-28T09:52:15.399Z,7.11
2023-12-28T09:54:42.185Z,7.01
2023-12-28T09:57:10.321Z,7.55
2023-12-28T09:59:39.089Z,7.33
2023-12-28T10:02:06.174Z,7.54
2023-12-28T10:04:32.953Z,8.50
2023-12-28T10:06:59.827Z,8.80
2023-12-28T10:09:29.376Z,9.68
2023-12-28T10:11:58.003Z,8.99
2023-12-28T10:14:25.295Z,9.43
2023-12-28T10:16:52.029Z,10.61
2023-12-28T10:19:23.071Z,9.93
2023-12-28T10:21:49.763Z,9.96
2023-12-28T10:24:16.529Z,11.40
2023-12-28T10:26:43.822Z,12.40
2023-12-28T10:29:10.539Z,12.03
2023-12-28T10:31:38.042Z,12.51
2023-12-28T10:34:05.671Z,13.24
2023-12-28T10:36:37.289Z,11.11
2023-12-28T10:39:06.505Z,12.16
2023-12-28T10:41:36.577Z,11.56
2023-12-28T10:44:09.158Z,12.68
2023-12-28T10:46:42.357Z,13.09
2023-12-28T10:49:18.509Z,12.04
2023-12-28T10:51:47.085Z,13.02
2023-12-28T10:54:45.830Z,13.75
2023-12-28T10:57:29.375Z,14.95
2023-12-28T11:00:01.808Z,14.50
2023-12-28T11:02:34.165Z,14.60
2023-12-28T11:05:03.323Z,13.93
2023-12-28T11:07:34.107Z,13.18
2023-12-28T11:10:06.161Z,13.03
2023-12-28T11:12:33.837Z,12.53
2023-12-28T11:15:00.992Z,12.66
2023-12-28T11:17:28.498Z,12.60
2023-12-28T11:19:56.169Z,13.09
2023-12-28T11:22:23.907Z,12.88
2023-12-28T11:24:54.371Z,11.82
2023-12-28T11:27:21.971Z,11.53
2023-12-28T11:29:53.153Z,11.72
2023-12-28T11:32:21.130Z,12.58
2023-12-28T11:34:58.036Z,12.17
2023-12-28T11:37:27.232Z,11.82
2023-12-28T11:39:55.803Z,11.97
2023-12-28T11:42:24.235Z,13.09
2023-12-28T11:44:57.066Z,12.57
2023-12-28T11:47:25.720Z,12.69
2023-12-28T11:49:58.133Z,12.95
2023-12-28T11:52:31.561Z,12.69
2023-12-28T11:55:00.767Z,12.52
2023-12-28T11:57:27.714Z,12.84
2023-12-28T11:59:56.844Z,13.33
2023-12-28T12:02:25.195Z,12.48
2023-12-28T12:04:54.598Z,12.88
2023-12-28T12:07:22.345Z,13.75
2023-12-28T12:09:49.048Z,12.54
2023-12-28T12:12:17.360Z,12.68
2023-12-28T12:14:44.327Z,12.31
2023-12-28T12:17:11.197Z,12.74
2023-12-28T12:19:38.712Z,12.92
2023-12-28T12:22:05.647Z,13.13
2023-12-28T12:24:34.117Z,14.00
2023-12-28T12:27:03.426Z,13.90
2023-12-28T12:29:33.333Z,13.13
2023-12-28T12:32:00.349Z,13.59
2023-12-28T12:34:27.271Z,12.96
2023-12-28T12:36:56.119Z,13.67
2023-12-28T12:39:26.743Z,13.74
2023-12-28T12:41:54.073Z,14.17
2023-12-28T12:44:21.759Z,14.47
2023-12-28T12:46:48.985Z,13.07
2023-12-28T12:49:18.287Z,12.99
2023-12-28T12:51:46.634Z,13.14
2023-12-28T12:54:13.383Z,13.38
2023-12-28T12:56:46.456Z,13.42
2023-12-28T12:59:18.556Z,13.71
2023-12-28T13:01:46.220Z,13.98
2023-12-28T13:04:13.408Z,14.15
2023-12-28T13:06:40.202Z,13.98
2023-12-28T13:09:08.136Z,13.73
2023-12-28T13:11:35.730Z,13.51
2023-12-28T13:14:02.468Z,13.67
2023-12-28T13:16:29.519Z,13.51
2023-12-28T13:18:56.455Z,12.63
2023-12-28T13:21:23.192Z,13.85
2023-12-28T13:23:49.873Z,13.37
2023-12-28T13:26:16.493Z,13.55
2023-12-28T13:28:43.810Z,13.58
2023-12-28T13:31:10.586Z,13.59
2023-12-28T13:33:37.460Z,13.72
2023-12-28T13:36:04.653Z,13.32
2023-12-28T13:38:32.107Z,13.08
2023-12-28T13:40:58.849Z,12.92
2023-12-28T13:43:25.502Z,12.89
2023-12-28T13:45:52.202Z,13.16
2023-12-28T13:48:19.034Z,13.02
2023-12-28T13:50:45.760Z,13.16
2023-12-28T13:53:12.423Z,13.15
2023-12-28T13:55:39.003Z,12.68
2023-12-28T13:58:05.904Z,12.44
2023-12-28T14:00:32.637Z,12.94
2023-12-28T14:03:00.734Z,12.65
2023-12-28T14:05:29.903Z,12.26
2023-12-28T14:07:58.269Z,11.94
2023-12-28T14:10:24.896Z,10.68
2023-12-28T14:12:51.652Z,10.52
2023-12-28T14:15:18.299Z,10.74
2023-12-28T14:17:45.125Z,10.76
2023-12-28T14:20:12.898Z,10.35
2023-12-28T14:22:40.385Z,9.74
2023-12-28T14:25:07.807Z,9.62
2023-12-28T14:27:34.767Z,9.43
2023-12-28T14:30:04.692Z,9.19
2023-12-28T14:32:32.030Z,9.09
2023-12-28T14:34:59.412Z,8.51
2023-12-28T14:37:26.210Z,8.46
2023-12-28T14:39:52.997Z,8.47
2023-12-28T14:42:19.705Z,8.66
2023-12-28T14:44:46.377Z,8.46
2023-12-28T14:47:13.035Z,7.64
2023-12-28T14:49:39.925Z,7.54
2023-12-28T14:52:06.669Z,7.43
2023-12-28T14:54:33.415Z,7.05
2023-12-28T14:57:00.153Z,7.18
2023-12-28T14:59:26.765Z,6.90
2023-12-28T15:01:53.674Z,6.98
2023-12-28T15:04:23.728Z,6.55
2023-12-28T15:06:52.480Z,7.01
2023-12-28T15:09:19.119Z,6.72
2023-12-28T15:11:48.876Z,6.25
2023-12-28T15:14:17.697Z,6.69
2023-12-28T15:16:44.985Z,7.24
2023-12-28T15:19:13.397Z,7.01
2023-12-28T15:21:40.432Z,6.67
2023-12-28T15:24:08.055Z,6.36
2023-12-28T15:26:34.756Z,6.18
2023-12-28T15:29:01.466Z,6.26
2023-12-28T15:31:28.271Z,5.86
2023-12-28T15:33:54.967Z,5.88
2023-12-28T15:36:21.795Z,5.95
2023-12-28T15:38:48.487Z,6.05
2023-12-28T15:41:15.742Z,6.15
2023-12-28T15:43:42.463Z,6.23
2023-12-28T15:46:09.191Z,5.82
2023-12-28T15:48:39.191Z,5.89
2023-12-28T15:51:07.183Z,5.39
2023-12-28T15:53:33.738Z,5.44
2023-12-28T15:56:09.146Z,5.46
2023-12-28T15:58:43.940Z,5.18
2023-12-28T16:01:10.794Z,4.92
2023-12-28T16:03:37.744Z,4.93
2023-12-28T16:06:05.835Z,4.74
2023-12-28T16:08:32.699Z,4.91
2023-12-28T16:11:01.352Z,4.83
2023-12-28T16:13:28.174Z,4.60
2023-12-28T16:15:55.717Z,4.65
2023-12-28T16:18:23.043Z,4.40
2023-12-28T16:20:50.059Z,4.25
2023-12-28T16:23:17.062Z,4.36
2023-12-28T16:25:43.853Z,4.36
2023-12-28T16:28:11.697Z,4.20
2023-12-28T16:30:40.078Z,4.72
2023-12-28T16:33:06.978Z,4.49
2023-12-28T16:35:33.681Z,4.41
2023-12-28T16:38:00.648Z,4.39
2023-12-28T16:40:27.487Z,4.32
2023-12-28T16:42:54.192Z,4.27
2023-12-28T16:45:22.722Z,4.07
2023-12-28T16:47:50.623Z,3.99
2023-12-28T16:50:17.390Z,4.15
2023-12-28T16:52:44.081Z,4.12
2023-12-28T16:55:10.971Z,4.01
2023-12-28T16:57:37.726Z,3.64
2023-12-28T17:00:11.124Z,4.42
2023-12-28T17:02:39.127Z,4.37
2023-12-28T17:05:07.133Z,4.17
2023-12-28T17:07:34.109Z,3.94
2023-12-28T17:10:04.415Z,3.76
2023-12-28T17:12:39.764Z,3.58
2023-12-28T17:15:08.245Z,3.58
2023-12-28T17:17:36.292Z,3.79
2023-12-28T17:20:04.512Z,3.66
2023-12-28T17:22:45.362Z,3.69
2023-12-28T17:25:30.647Z,3.67
2023-12-28T17:28:01.357Z,3.54
2023-12-28T17:30:30.039Z,3.88
2023-12-28T17:33:02.965Z,3.65
2023-12-28T17:35:30.633Z,3.47
2023-12-28T17:37:59.144Z,3.35
2023-12-28T17:40:26.382Z,3.22
2023-12-28T17:42:55.464Z,3.12
2023-12-28T17:45:38.177Z,2.98
2023-12-28T17:48:09.477Z,2.88
2023-12-28T17:50:39.331Z,2.79
2023-12-28T17:53:06.684Z,2.79
2023-12-28T17:55:34.298Z,3.06
2023-12-28T17:58:01.564Z,2.99
2023-12-28T18:00:28.512Z,2.74
2023-12-28T18:02:55.219Z,2.68
2023-12-28T18:05:21.991Z,2.91
2023-12-28T18:07:48.689Z,3.01
2023-12-28T18:10:15.384Z,2.76
2023-12-28T18:12:42.095Z,2.68
2023-12-28T18:15:09.254Z,2.65
2023-12-28T18:17:36.044Z,2.58
2023-12-28T18:20:03.608Z,2.68
2023-12-28T18:22:30.289Z,2.77
2023-12-28T18:24:57.122Z,2.70
2023-12-28T18:27:23.910Z,2.62
2023-12-28T18:29:53.303Z,2.55
2023-12-28T18:32:20.100Z,2.68
2023-12-28T18:34:47.426Z,2.52
2023-12-28T18:37:17.136Z,2.65
2023-12-28T18:39:43.875Z,2.34
2023-12-28T18:42:10.705Z,2.58
2023-12-28T18:44:38.149Z,2.62
2023-12-28T18:47:05.811Z,2.50
2023-12-28T18:49:33.602Z,2.26
2023-12-28T18:52:00.877Z,2.40
2023-12-28T18:54:27.809Z,2.42
2023-12-28T18:56:54.549Z,2.38
2023-12-28T18:59:21.202Z,2.33
2023-12-28T19:01:48.044Z,2.39
2023-12-28T19:04:15.117Z,2.58
2023-12-28T19:06:41.950Z,2.75
2023-12-28T19:09:08.628Z,2.94
2023-12-28T19:11:35.207Z,2.57
2023-12-28T19:14:01.910Z,2.17
2023-12-28T19:16:28.551Z,2.21
2023-12-28T19:18:55.449Z,2.31
2023-12-28T19:21:23.573Z,2.13
2023-12-28T19:23:50.333Z,2.03
2023-12-28T19:26:17.447Z,2.36
2023-12-28T19:28:44.121Z,2.39
2023-12-28T19:31:10.928Z,2.28
2023-12-28T19:33:37.786Z,2.05
2023-12-28T19:36:04.884Z,1.88
2023-12-28T19:38:31.580Z,2.07
2023-12-28T19:40:58.310Z,2.02
2023-12-28T19:43:24.954Z,1.98
2023-12-28T19:45:51.602Z,2.03
2023-12-28T19:48:18.369Z,2.18
2023-12-28T19:50:45.658Z,1.98
2023-12-28T19:53:17.266Z,1.83
2023-12-28T19:55:43.909Z,2.09
2023-12-28T19:58:10.680Z,2.04
2023-12-28T20:00:39.529Z,2.12
2023-12-28T20:03:07.483Z,2.27
2023-12-28T20:05:34.910Z,1.93
2023-12-28T20:08:03.834Z,1.98
2023-12-28T20:10:31.451Z,2.07
2023-12-28T20:12:59.211Z,2.18
2023-12-28T20:15:29.015Z,2.17
2023-12-28T20:17:56.354Z,1.96
2023-12-28T20:20:24.168Z,1.89
2023-12-28T20:22:51.006Z,2.10
2023-12-28T20:25:18.109Z,2.79
2023-12-28T20:27:45.218Z,2.41
2023-12-28T20:30:12.887Z,2.21
2023-12-28T20:32:40.726Z,2.57
2023-12-28T20:35:07.785Z,2.20
2023-12-28T20:37:34.617Z,2.25
2023-12-28T20:40:01.472Z,2.19
2023-12-28T20:42:28.253Z,2.27
2023-12-28T20:44:56.622Z,2.11
2023-12-28T20:47:23.551Z,2.21
2023-12-28T20:49:50.356Z,2.21
2023-12-28T20:52:17.241Z,2.17
2023-12-28T20:54:43.957Z,1.99
2023-12-28T20:57:11.062Z,1.93
2023-12-28T20:59:41.536Z,1.90
2023-12-28T21:02:08.297Z,1.88
2023-12-28T21:04:39.163Z,1.79
2023-12-28T21:07:06.199Z,1.87
2023-12-28T21:09:33.012Z,1.95
2023-12-28T21:12:02.776Z,2.07
2023-12-28T21:14:29.648Z,1.96
2023-12-28T21:16:57.468Z,1.97
2023-12-28T21:19:24.474Z,2.14
2023-12-28T21:21:51.377Z,1.99
2023-12-28T21:24:18.067Z,2.20
2023-12-28T21:26:45.220Z,2.40
2023-12-28T21:29:12.730Z,2.15
2023-12-28T21:31:40.214Z,2.23
2023-12-28T21:34:07.033Z,2.04
2023-12-28T21:36:34.642Z,2.00
2023-12-28T21:39:01.388Z,2.07
2023-12-28T21:41:28.074Z,2.10
2023-12-28T21:43:54.760Z,2.02
2023-12-28T21:46:22.845Z,2.01
2023-12-28T21:48:49.889Z,1.91
2023-12-28T21:51:16.712Z,2.30
2023-12-28T21:53:43.418Z,2.61
2023-12-28T21:56:11.167Z,2.35
2023-12-28T21:58:37.832Z,2.64
2023-12-28T22:01:04.845Z,2.54
2023-12-28T22:03:31.663Z,2.39
2023-12-28T22:06:01.775Z,2.26
2023-12-28T22:08:28.637Z,2.12
2023-12-28T22:10:55.324Z,2.22
2023-12-28T22:13:21.991Z,2.27
2023-12-28T22:15:59.625Z,2.29
2023-12-28T22:18:28.156Z,2.41
2023-12-28T22:20:55.068Z,2.66
2023-12-28T22:23:21.789Z,3.26
2023-12-28T22:25:48.782Z,2.55
2023-12-28T22:28:15.809Z,2.47
2023-12-28T22:30:42.727Z,2.47
2023-12-28T22:33:09.790Z,2.54
2023-12-28T22:35:36.604Z,2.47
2023-12-28T22:38:03.500Z,2.59
2023-12-28T22:40:30.475Z,2.42
2023-12-28T22:42:57.122Z,2.08
2023-12-28T22:45:23.797Z,2.05
2023-12-28T22:47:50.525Z,2.26
2023-12-28T22:50:17.261Z,2.21
2023-12-28T22:52:44.160Z,2.09
2023-12-28T22:55:11.074Z,2.33
2023-12-28T22:57:37.859Z,2.31
2023-12-28T23:00:06.945Z,2.25
2023-12-28T23:02:33.614Z,2.20
2023-12-28T23:05:01.490Z,2.30
2023-12-28T23:07:28.209Z,2.24
2023-12-28T23:09:54.958Z,2.22
2023-12-28T23:12:21.718Z,2.20
2023-12-28T23:14:48.393Z,2.10
2023-12-28T23:17:15.089Z,1.92
2023-12-28T23:19:45.454Z,2.37
2023-12-28T23:22:12.430Z,2.36
2023-12-28T23:24:42.582Z,2.01
2023-12-28T23:27:10.605Z,2.01
2023-12-28T23:29:41.067Z,1.97
2023-12-28T23:32:08.428Z,1.94
2023-12-28T23:34:35.189Z,1.83
2023-12-28T23:37:02.003Z,1.69
2023-12-28T23:39:29.112Z,1.67
2023-12-28T23:41:55.868Z,1.57
2023-12-28T23:44:22.527Z,1.45
2023-12-28T23:46:49.172Z,2.18
2023-12-28T23:49:15.865Z,1.76
2023-12-28T23:51:42.602Z,1.40
2023-12-28T23:54:09.256Z,1.30
2023-12-28T23:56:35.859Z,1.48
2023-12-28T23:59:02.606Z,1.15
